sensor_id;sensor_type;location;lat;lon;timestamp;pressure;altitude;pressure_sealevel;temperature;humidity
7335;BME280;3708;42.632;23.378;2023-04-20T00:00:47;93939.88;;;12.36;51.30
7335;BME280;3708;42.632;23.378;2023-04-20T00:03:14;93945.41;;;12.03;52.16
7335;BME280;3708;42.632;23.378;2023-04-20T00:05:42;93930.16;;;12.37;51.70
7335;BME280;3708;42.632;23.378;2023-04-20T00:08:09;93934.50;;;12.60;51.02
7335;BME280;3708;42.632;23.378;2023-04-20T00:10:36;93921.03;;;12.77;50.52
7335;BME280;3708;42.632;23.378;2023-04-20T00:13:03;93928.66;;;12.51;50.96
7335;BME280;3708;42.632;23.378;2023-04-20T00:15:32;93920.03;;;12.07;52.17
7335;BME280;3708;42.632;23.378;2023-04-20T00:17:58;93925.00;;;11.45;53.44
7335;BME280;3708;42.632;23.378;2023-04-20T00:20:26;93918.56;;;12.10;51.82
7335;BME280;3708;42.632;23.378;2023-04-20T00:22:53;93911.53;;;12.57;51.38
7335;BME280;3708;42.632;23.378;2023-04-20T00:25:20;93911.63;;;13.08;50.10
7335;BME280;3708;42.632;23.378;2023-04-20T00:27:46;93915.44;;;12.63;50.91
7335;BME280;3708;42.632;23.378;2023-04-20T00:30:14;93909.06;;;12.49;51.01
7335;BME280;3708;42.632;23.378;2023-04-20T00:32:42;93917.00;;;11.93;52.91
7335;BME280;3708;42.632;23.378;2023-04-20T00:35:09;93896.91;;;12.13;52.71
7335;BME280;3708;42.632;23.378;2023-04-20T00:37:36;93907.03;;;12.58;51.53
7335;BME280;3708;42.632;23.378;2023-04-20T00:40:03;93912.13;;;12.51;51.49
7335;BME280;3708;42.632;23.378;2023-04-20T00:42:30;93899.09;;;12.11;52.46
7335;BME280;3708;42.632;23.378;2023-04-20T00:44:57;93907.22;;;12.06;53.08
7335;BME280;3708;42.632;23.378;2023-04-20T00:47:24;93903.84;;;12.05;53.46
7335;BME280;3708;42.632;23.378;2023-04-20T00:49:52;93898.34;;;12.10;53.72
7335;BME280;3708;42.632;23.378;2023-04-20T00:52:20;93906.44;;;12.64;52.29
7335;BME280;3708;42.632;23.378;2023-04-20T00:54:47;93904.13;;;12.32;52.93
7335;BME280;3708;42.632;23.378;2023-04-20T00:57:17;93902.03;;;11.94;53.56
7335;BME280;3708;42.632;23.378;2023-04-20T00:59:47;93893.75;;;11.80;53.97
7335;BME280;3708;42.632;23.378;2023-04-20T01:02:14;93900.00;;;12.46;52.47
7335;BME280;3708;42.632;23.378;2023-04-20T01:04:40;93897.78;;;11.89;54.24
7335;BME280;3708;42.632;23.378;2023-04-20T01:07:09;93895.44;;;11.08;56.54
7335;BME280;3708;42.632;23.378;2023-04-20T01:09:36;93897.28;;;11.32;56.23
7335;BME280;3708;42.632;23.378;2023-04-20T01:12:04;93897.78;;;11.89;54.87
7335;BME280;3708;42.632;23.378;2023-04-20T01:14:31;93896.94;;;11.33;56.10
7335;BME280;3708;42.632;23.378;2023-04-20T01:16:58;93897.22;;;10.80;57.63
7335;BME280;3708;42.632;23.378;2023-04-20T01:19:25;93899.59;;;10.73;58.53
7335;BME280;3708;42.632;23.378;2023-04-20T01:21:52;93895.84;;;11.22;57.48
7335;BME280;3708;42.632;23.378;2023-04-20T01:24:20;93901.13;;;11.10;57.51
7335;BME280;3708;42.632;23.378;2023-04-20T01:26:47;93896.16;;;11.45;56.72
7335;BME280;3708;42.632;23.378;2023-04-20T01:29:14;93895.84;;;11.22;57.43
7335;BME280;3708;42.632;23.378;2023-04-20T01:31:40;93896.97;;;10.61;59.07
7335;BME280;3708;42.632;23.378;2023-04-20T01:34:07;93892.81;;;10.96;58.47
7335;BME280;3708;42.632;23.378;2023-04-20T01:36:34;93888.44;;;10.40;60.14
7335;BME280;3708;42.632;23.378;2023-04-20T01:39:01;93900.56;;;11.17;58.05
7335;BME280;3708;42.632;23.378;2023-04-20T01:41:29;93890.56;;;11.46;56.59
7335;BME280;3708;42.632;23.378;2023-04-20T01:43:56;93903.50;;;11.15;57.57
7335;BME280;3708;42.632;23.378;2023-04-20T01:46:22;93899.56;;;11.33;57.17
7335;BME280;3708;42.632;23.378;2023-04-20T01:48:49;93891.72;;;11.09;57.58
7335;BME280;3708;42.632;23.378;2023-04-20T01:51:16;93889.19;;;11.25;57.39
7335;BME280;3708;42.632;23.378;2023-04-20T01:53:43;93887.25;;;11.62;55.79
7335;BME280;3708;42.632;23.378;2023-04-20T01:56:10;93873.34;;;11.21;57.43
7335;BME280;3708;42.632;23.378;2023-04-20T01:58:38;93880.94;;;10.62;58.87
7335;BME280;3708;42.632;23.378;2023-04-20T02:01:05;93872.66;;;11.36;57.46
7335;BME280;3708;42.632;23.378;2023-04-20T02:03:31;93876.28;;;11.32;57.18
7335;BME280;3708;42.632;23.378;2023-04-20T02:05:58;93873.97;;;11.42;56.49
7335;BME280;3708;42.632;23.378;2023-04-20T02:08:25;93874.66;;;11.27;56.96
7335;BME280;3708;42.632;23.378;2023-04-20T02:10:52;93881.06;;;10.78;58.50
7335;BME280;3708;42.632;23.378;2023-04-20T02:13:19;93876.91;;;10.77;58.38
7335;BME280;3708;42.632;23.378;2023-04-20T02:15:47;93872.47;;;11.29;57.34
7335;BME280;3708;42.632;23.378;2023-04-20T02:18:13;93870.66;;;11.45;56.61
7335;BME280;3708;42.632;23.378;2023-04-20T02:20:41;93875.44;;;11.16;57.02
7335;BME280;3708;42.632;23.378;2023-04-20T02:23:08;93879.25;;;11.18;56.98
7335;BME280;3708;42.632;23.378;2023-04-20T02:25:35;93882.06;;;11.37;57.06
7335;BME280;3708;42.632;23.378;2023-04-20T02:28:01;93877.41;;;11.71;55.87
7335;BME280;3708;42.632;23.378;2023-04-20T02:30:28;93881.47;;;11.96;55.28
7335;BME280;3708;42.632;23.378;2023-04-20T02:32:56;93881.41;;;12.23;54.70
7335;BME280;3708;42.632;23.378;2023-04-20T02:35:23;93876.31;;;11.72;55.94
7335;BME280;3708;42.632;23.378;2023-04-20T02:37:50;93878.34;;;12.06;55.13
7335;BME280;3708;42.632;23.378;2023-04-20T02:40:17;93874.09;;;12.01;55.06
7335;BME280;3708;42.632;23.378;2023-04-20T02:42:44;93887.34;;;11.77;55.31
7335;BME280;3708;42.632;23.378;2023-04-20T02:45:11;93880.47;;;11.61;56.66
7335;BME280;3708;42.632;23.378;2023-04-20T02:47:39;93877.94;;;11.76;56.37
7335;BME280;3708;42.632;23.378;2023-04-20T02:50:10;93880.69;;;11.95;56.17
7335;BME280;3708;42.632;23.378;2023-04-20T02:52:37;93877.72;;;11.97;55.28
7335;BME280;3708;42.632;23.378;2023-04-20T02:55:04;93885.16;;;11.15;58.08
7335;BME280;3708;42.632;23.378;2023-04-20T02:57:32;93873.44;;;11.37;57.72
7335;BME280;3708;42.632;23.378;2023-04-20T02:59:59;93884.75;;;11.53;57.50
7335;BME280;3708;42.632;23.378;2023-04-20T03:02:26;93895.97;;;11.14;58.02
7335;BME280;3708;42.632;23.378;2023-04-20T03:04:53;93877.09;;;10.96;58.04
7335;BME280;3708;42.632;23.378;2023-04-20T03:07:21;93885.16;;;11.15;57.54
7335;BME280;3708;42.632;23.378;2023-04-20T03:09:48;93888.69;;;10.83;58.31
7335;BME280;3708;42.632;23.378;2023-04-20T03:12:15;93883.09;;;11.21;56.42
7335;BME280;3708;42.632;23.378;2023-04-20T03:14:42;93880.38;;;10.81;57.16
7335;BME280;3708;42.632;23.378;2023-04-20T03:17:09;93879.66;;;11.44;56.49
7335;BME280;3708;42.632;23.378;2023-04-20T03:19:36;93871.88;;;11.08;57.50
7335;BME280;3708;42.632;23.378;2023-04-20T03:22:03;93876.56;;;11.55;55.94
7335;BME280;3708;42.632;23.378;2023-04-20T03:24:31;93882.09;;;11.13;56.52
7335;BME280;3708;42.632;23.378;2023-04-20T03:26:58;93888.75;;;11.63;55.79
7335;BME280;3708;42.632;23.378;2023-04-20T03:29:25;93882.78;;;11.62;55.89
7335;BME280;3708;42.632;23.378;2023-04-20T03:31:51;93884.06;;;11.56;55.22
7335;BME280;3708;42.632;23.378;2023-04-20T03:34:18;93886.09;;;11.35;56.64
7335;BME280;3708;42.632;23.378;2023-04-20T03:36:46;93886.72;;;11.96;55.23
7335;BME280;3708;42.632;23.378;2023-04-20T03:39:12;93883.13;;;11.48;56.12
7335;BME280;3708;42.632;23.378;2023-04-20T03:41:41;93895.66;;;11.67;55.30
7335;BME280;3708;42.632;23.378;2023-04-20T03:44:09;93896.19;;;11.61;55.64
7335;BME280;3708;42.632;23.378;2023-04-20T03:46:36;93885.41;;;10.98;57.50
7335;BME280;3708;42.632;23.378;2023-04-20T03:49:03;93891.16;;;11.16;56.56
7335;BME280;3708;42.632;23.378;2023-04-20T03:51:30;93894.00;;;11.11;57.21
7335;BME280;3708;42.632;23.378;2023-04-20T03:53:57;93890.41;;;11.27;56.42
7335;BME280;3708;42.632;23.378;2023-04-20T03:56:23;93888.16;;;11.54;55.57
7335;BME280;3708;42.632;23.378;2023-04-20T03:58:53;93885.09;;;11.91;55.49
7335;BME280;3708;42.632;23.378;2023-04-20T04:01:20;93894.25;;;11.97;54.88
7335;BME280;3708;42.632;23.378;2023-04-20T04:03:46;93885.44;;;12.33;53.84
7335;BME280;3708;42.632;23.378;2023-04-20T04:06:13;93897.31;;;12.58;53.23
7335;BME280;3708;42.632;23.378;2023-04-20T04:08:41;93902.53;;;12.43;53.15
7335;BME280;3708;42.632;23.378;2023-04-20T04:11:07;93895.41;;;12.27;53.52
7335;BME280;3708;42.632;23.378;2023-04-20T04:13:34;93895.59;;;12.81;52.26
7335;BME280;3708;42.632;23.378;2023-04-20T04:16:03;93908.91;;;12.57;52.55
7335;BME280;3708;42.632;23.378;2023-04-20T04:18:30;93906.38;;;12.76;52.38
7335;BME280;3708;42.632;23.378;2023-04-20T04:20:58;93910.53;;;12.46;52.01
7335;BME280;3708;42.632;23.378;2023-04-20T04:23:24;93905.81;;;12.24;53.24
7335;BME280;3708;42.632;23.378;2023-04-20T04:25:53;93911.84;;;11.97;54.20
7335;BME280;3708;42.632;23.378;2023-04-20T04:28:24;93903.44;;;12.19;53.88
7335;BME280;3708;42.632;23.378;2023-04-20T04:30:51;93911.38;;;12.66;52.30
7335;BME280;3708;42.632;23.378;2023-04-20T04:33:24;93907.72;;;13.01;51.80
7335;BME280;3708;42.632;23.378;2023-04-20T04:35:53;93907.91;;;12.93;52.25
7335;BME280;3708;42.632;23.378;2023-04-20T04:38:19;93904.44;;;12.14;53.17
7335;BME280;3708;42.632;23.378;2023-04-20T04:40:47;93911.13;;;11.84;54.31
7335;BME280;3708;42.632;23.378;2023-04-20T04:43:14;93916.94;;;11.78;54.36
7335;BME280;3708;42.632;23.378;2023-04-20T04:45:41;93922.53;;;12.47;53.17
7335;BME280;3708;42.632;23.378;2023-04-20T04:48:08;93921.72;;;12.15;53.50
7335;BME280;3708;42.632;23.378;2023-04-20T04:50:37;93913.09;;;11.87;54.43
7335;BME280;3708;42.632;23.378;2023-04-20T04:53:04;93922.69;;;11.56;55.98
7335;BME280;3708;42.632;23.378;2023-04-20T04:55:31;93933.00;;;10.88;57.19
7335;BME280;3708;42.632;23.378;2023-04-20T04:57:58;93926.75;;;11.29;56.59
7335;BME280;3708;42.632;23.378;2023-04-20T05:00:26;93931.19;;;11.52;55.86
7335;BME280;3708;42.632;23.378;2023-04-20T05:02:53;93920.06;;;11.56;55.37
7335;BME280;3708;42.632;23.378;2023-04-20T05:05:20;93922.56;;;11.64;55.74
7335;BME280;3708;42.632;23.378;2023-04-20T05:07:48;93926.38;;;11.67;54.98
7335;BME280;3708;42.632;23.378;2023-04-20T05:10:15;93931.94;;;12.33;53.96
7335;BME280;3708;42.632;23.378;2023-04-20T05:12:42;93927.03;;;12.47;53.68
7335;BME280;3708;42.632;23.378;2023-04-20T05:15:10;93928.06;;;11.87;54.85
7335;BME280;3708;42.632;23.378;2023-04-20T05:17:36;93927.94;;;11.56;55.45
7335;BME280;3708;42.632;23.378;2023-04-20T05:20:04;93940.28;;;11.43;55.93
7335;BME280;3708;42.632;23.378;2023-04-20T05:22:32;93931.34;;;11.32;56.10
7335;BME280;3708;42.632;23.378;2023-04-20T05:25:00;93925.66;;;11.94;54.81
7335;BME280;3708;42.632;23.378;2023-04-20T05:27:27;93930.47;;;12.19;54.48
7335;BME280;3708;42.632;23.378;2023-04-20T05:29:53;93942.44;;;12.05;54.34
7335;BME280;3708;42.632;23.378;2023-04-20T05:32:20;93929.84;;;11.83;55.02
7335;BME280;3708;42.632;23.378;2023-04-20T05:34:47;93937.47;;;12.15;54.37
7335;BME280;3708;42.632;23.378;2023-04-20T05:37:14;93931.59;;;12.34;53.67
7335;BME280;3708;42.632;23.378;2023-04-20T05:39:41;93932.41;;;11.95;54.70
7335;BME280;3708;42.632;23.378;2023-04-20T05:42:09;93929.19;;;11.86;55.20
7335;BME280;3708;42.632;23.378;2023-04-20T05:44:36;93944.97;;;12.01;54.95
7335;BME280;3708;42.632;23.378;2023-04-20T05:47:04;93938.50;;;12.54;53.76
7335;BME280;3708;42.632;23.378;2023-04-20T05:49:32;93938.00;;;11.17;56.68
7335;BME280;3708;42.632;23.378;2023-04-20T05:52:00;93946.22;;;11.04;57.34
7335;BME280;3708;42.632;23.378;2023-04-20T05:54:27;93938.13;;;11.45;56.74
7335;BME280;3708;42.632;23.378;2023-04-20T05:56:54;93947.34;;;11.79;55.41
7335;BME280;3708;42.632;23.378;2023-04-20T05:59:23;93940.94;;;11.40;56.56
7335;BME280;3708;42.632;23.378;2023-04-20T06:01:50;93942.22;;;11.58;56.73
7335;BME280;3708;42.632;23.378;2023-04-20T06:04:17;93950.84;;;11.59;56.56
7335;BME280;3708;42.632;23.378;2023-04-20T06:06:44;93935.16;;;11.34;57.01
7335;BME280;3708;42.632;23.378;2023-04-20T06:09:11;93941.91;;;11.60;56.68
7335;BME280;3708;42.632;23.378;2023-04-20T06:11:38;93936.59;;;11.32;57.39
7335;BME280;3708;42.632;23.378;2023-04-20T06:14:05;93938.28;;;11.76;56.72
7335;BME280;3708;42.632;23.378;2023-04-20T06:16:33;93952.63;;;11.55;57.36
7335;BME280;3708;42.632;23.378;2023-04-20T06:19:00;93949.94;;;11.27;58.20
7335;BME280;3708;42.632;23.378;2023-04-20T06:21:27;93944.09;;;11.58;57.39
7335;BME280;3708;42.632;23.378;2023-04-20T06:23:53;93945.53;;;11.31;58.22
7335;BME280;3708;42.632;23.378;2023-04-20T06:26:20;93954.34;;;11.75;57.69
7335;BME280;3708;42.632;23.378;2023-04-20T06:28:47;93943.66;;;11.68;57.89
7335;BME280;3708;42.632;23.378;2023-04-20T06:31:16;93951.31;;;11.48;58.64
7335;BME280;3708;42.632;23.378;2023-04-20T06:33:44;93946.06;;;11.73;57.29
7335;BME280;3708;42.632;23.378;2023-04-20T06:36:11;93945.53;;;11.55;58.70
7335;BME280;3708;42.632;23.378;2023-04-20T06:38:38;93945.38;;;11.76;57.96
7335;BME280;3708;42.632;23.378;2023-04-20T06:41:05;93949.78;;;11.99;57.17
7335;BME280;3708;42.632;23.378;2023-04-20T06:43:32;93941.91;;;11.47;58.16
7335;BME280;3708;42.632;23.378;2023-04-20T06:45:58;93946.78;;;11.85;57.49
7335;BME280;3708;42.632;23.378;2023-04-20T06:48:26;93960.13;;;11.80;57.48
7335;BME280;3708;42.632;23.378;2023-04-20T06:50:54;93965.44;;;11.96;57.55
7335;BME280;3708;42.632;23.378;2023-04-20T06:53:21;93969.91;;;11.07;59.20
7335;BME280;3708;42.632;23.378;2023-04-20T06:55:48;93965.09;;;11.21;58.96
7335;BME280;3708;42.632;23.378;2023-04-20T06:58:15;93963.00;;;11.39;58.09
7335;BME280;3708;42.632;23.378;2023-04-20T07:00:42;93973.47;;;11.63;57.83
7335;BME280;3708;42.632;23.378;2023-04-20T07:03:09;93966.50;;;12.07;56.56
7335;BME280;3708;42.632;23.378;2023-04-20T07:05:36;93970.13;;;11.50;58.15
7335;BME280;3708;42.632;23.378;2023-04-20T07:08:04;93979.59;;;11.79;57.95
7335;BME280;3708;42.632;23.378;2023-04-20T07:10:31;93974.28;;;11.39;58.47
7335;BME280;3708;42.632;23.378;2023-04-20T07:12:57;93974.91;;;11.36;59.37
7335;BME280;3708;42.632;23.378;2023-04-20T07:15:24;93984.06;;;12.18;57.21
7335;BME280;3708;42.632;23.378;2023-04-20T07:17:51;93983.59;;;12.01;57.45
7335;BME280;3708;42.632;23.378;2023-04-20T07:20:18;93988.56;;;11.66;57.92
7335;BME280;3708;42.632;23.378;2023-04-20T07:22:44;93985.38;;;11.61;58.40
7335;BME280;3708;42.632;23.378;2023-04-20T07:25:13;93976.69;;;11.69;57.94
7335;BME280;3708;42.632;23.378;2023-04-20T07:27:39;93975.56;;;11.70;58.51
7335;BME280;3708;42.632;23.378;2023-04-20T07:30:08;93978.34;;;12.01;57.59
7335;BME280;3708;42.632;23.378;2023-04-20T07:32:35;93974.94;;;12.71;56.17
7335;BME280;3708;42.632;23.378;2023-04-20T07:35:03;93977.78;;;12.35;56.45
7335;BME280;3708;42.632;23.378;2023-04-20T07:37:30;93972.78;;;12.46;55.69
7335;BME280;3708;42.632;23.378;2023-04-20T07:39:57;93978.63;;;11.72;57.20
7335;BME280;3708;42.632;23.378;2023-04-20T07:42:25;93976.59;;;11.93;56.31
7335;BME280;3708;42.632;23.378;2023-04-20T07:44:52;93972.41;;;12.04;56.29
7335;BME280;3708;42.632;23.378;2023-04-20T07:47:19;93980.34;;;11.80;56.19
7335;BME280;3708;42.632;23.378;2023-04-20T07:49:46;93977.41;;;11.81;56.37
7335;BME280;3708;42.632;23.378;2023-04-20T07:52:13;93982.47;;;12.14;55.84
7335;BME280;3708;42.632;23.378;2023-04-20T07:54:40;93985.59;;;12.19;55.64
7335;BME280;3708;42.632;23.378;2023-04-20T07:57:07;93977.44;;;11.57;57.02
7335;BME280;3708;42.632;23.378;2023-04-20T07:59:35;93959.25;;;12.16;55.63
7335;BME280;3708;42.632;23.378;2023-04-20T08:02:02;93971.06;;;12.65;54.72
7335;BME280;3708;42.632;23.378;2023-04-20T08:04:29;93972.97;;;12.25;55.10
7335;BME280;3708;42.632;23.378;2023-04-20T08:06:56;93983.78;;;12.36;55.36
7335;BME280;3708;42.632;23.378;2023-04-20T08:09:22;93968.03;;;12.08;54.93
7335;BME280;3708;42.632;23.378;2023-04-20T08:11:50;93985.59;;;11.92;56.10
7335;BME280;3708;42.632;23.378;2023-04-20T08:14:17;93970.41;;;12.13;55.66
7335;BME280;3708;42.632;23.378;2023-04-20T08:16:45;93975.78;;;12.44;55.00
7335;BME280;3708;42.632;23.378;2023-04-20T08:19:12;93984.75;;;12.15;55.27
7335;BME280;3708;42.632;23.378;2023-04-20T08:21:39;93974.72;;;12.49;54.49
7335;BME280;3708;42.632;23.378;2023-04-20T08:24:07;93965.22;;;12.72;53.83
7335;BME280;3708;42.632;23.378;2023-04-20T08:26:34;93978.41;;;12.44;54.93
7335;BME280;3708;42.632;23.378;2023-04-20T08:29:02;93979.88;;;12.88;53.80
7335;BME280;3708;42.632;23.378;2023-04-20T08:31:29;93990.88;;;12.63;54.54
7335;BME280;3708;42.632;23.378;2023-04-20T08:33:57;93986.78;;;12.50;54.88
7335;BME280;3708;42.632;23.378;2023-04-20T08:36:24;93991.53;;;12.44;54.88
7335;BME280;3708;42.632;23.378;2023-04-20T08:38:53;93976.75;;;12.98;53.32
7335;BME280;3708;42.632;23.378;2023-04-20T08:41:21;93980.38;;;12.78;53.58
7335;BME280;3708;42.632;23.378;2023-04-20T08:43:48;93977.53;;;13.15;52.62
7335;BME280;3708;42.632;23.378;2023-04-20T08:46:16;93983.97;;;13.01;53.73
7335;BME280;3708;42.632;23.378;2023-04-20T08:48:45;93981.59;;;12.38;54.42
7335;BME280;3708;42.632;23.378;2023-04-20T08:51:15;93983.78;;;12.94;53.54
7335;BME280;3708;42.632;23.378;2023-04-20T08:53:42;93972.19;;;13.27;52.98
7335;BME280;3708;42.632;23.378;2023-04-20T08:56:09;93981.06;;;13.38;52.53
7335;BME280;3708;42.632;23.378;2023-04-20T08:58:36;93978.56;;;12.51;54.20
7335;BME280;3708;42.632;23.378;2023-04-20T09:01:07;93979.63;;;12.93;53.94
7335;BME280;3708;42.632;23.378;2023-04-20T09:03:35;93982.03;;;13.14;52.93
7335;BME280;3708;42.632;23.378;2023-04-20T09:06:03;93982.25;;;12.78;54.04
7335;BME280;3708;42.632;23.378;2023-04-20T09:08:36;93980.38;;;12.63;54.50
7335;BME280;3708;42.632;23.378;2023-04-20T09:11:03;93988.63;;;12.49;55.19
7335;BME280;3708;42.632;23.378;2023-04-20T09:13:30;93971.81;;;12.66;54.84
7335;BME280;3708;42.632;23.378;2023-04-20T09:15:57;93980.47;;;12.82;53.86
7335;BME280;3708;42.632;23.378;2023-04-20T09:18:23;93995.56;;;12.85;54.60
7335;BME280;3708;42.632;23.378;2023-04-20T09:20:50;93996.63;;;12.68;54.18
7335;BME280;3708;42.632;23.378;2023-04-20T09:23:19;93985.44;;;13.30;53.19
7335;BME280;3708;42.632;23.378;2023-04-20T09:25:50;93976.84;;;12.86;53.78
7335;BME280;3708;42.632;23.378;2023-04-20T09:28:18;93966.06;;;13.23;52.99
7335;BME280;3708;42.632;23.378;2023-04-20T09:30:46;93960.09;;;13.07;53.92
7335;BME280;3708;42.632;23.378;2023-04-20T09:33:13;93980.53;;;13.13;52.71
7335;BME280;3708;42.632;23.378;2023-04-20T09:35:41;93964.06;;;13.66;51.40
7335;BME280;3708;42.632;23.378;2023-04-20T09:38:09;93967.34;;;12.97;53.14
7335;BME280;3708;42.632;23.378;2023-04-20T09:40:36;93980.84;;;13.27;52.59
7335;BME280;3708;42.632;23.378;2023-04-20T09:43:08;93974.66;;;13.20;52.85
7335;BME280;3708;42.632;23.378;2023-04-20T09:45:37;93978.59;;;13.60;51.49
7335;BME280;3708;42.632;23.378;2023-04-20T09:48:05;93972.06;;;14.27;50.36
7335;BME280;3708;42.632;23.378;2023-04-20T09:50:34;93960.69;;;14.04;51.17
7335;BME280;3708;42.632;23.378;2023-04-20T09:53:02;93959.41;;;14.33;50.03
7335;BME280;3708;42.632;23.378;2023-04-20T09:55:30;93975.44;;;13.90;50.67
7335;BME280;3708;42.632;23.378;2023-04-20T09:57:57;93963.25;;;13.47;51.68
7335;BME280;3708;42.632;23.378;2023-04-20T10:00:26;93967.75;;;13.81;51.23
7335;BME280;3708;42.632;23.378;2023-04-20T10:02:53;93957.91;;;14.55;49.02
7335;BME280;3708;42.632;23.378;2023-04-20T10:05:31;93965.13;;;14.58;49.33
7335;BME280;3708;42.632;23.378;2023-04-20T10:07:58;93965.91;;;14.81;48.52
7335;BME280;3708;42.632;23.378;2023-04-20T10:10:26;93953.47;;;13.82;50.75
7335;BME280;3708;42.632;23.378;2023-04-20T10:12:54;93971.94;;;14.01;50.10
7335;BME280;3708;42.632;23.378;2023-04-20T10:15:22;93955.75;;;14.22;49.72
7335;BME280;3708;42.632;23.378;2023-04-20T10:17:52;93954.84;;;13.76;51.17
7335;BME280;3708;42.632;23.378;2023-04-20T10:20:21;93954.88;;;14.14;50.18
7335;BME280;3708;42.632;23.378;2023-04-20T10:22:50;93934.91;;;13.94;49.98
7335;BME280;3708;42.632;23.378;2023-04-20T10:25:19;93953.91;;;14.03;50.69
7335;BME280;3708;42.632;23.378;2023-04-20T10:27:54;93935.94;;;14.47;49.43
7335;BME280;3708;42.632;23.378;2023-04-20T10:30:21;93959.59;;;14.43;48.95
7335;BME280;3708;42.632;23.378;2023-04-20T10:32:49;93939.63;;;14.42;49.69
7335;BME280;3708;42.632;23.378;2023-04-20T10:35:17;93949.19;;;15.18;48.07
7335;BME280;3708;42.632;23.378;2023-04-20T10:37:48;93939.06;;;16.02;46.18
7335;BME280;3708;42.632;23.378;2023-04-20T10:40:15;93930.91;;;15.06;47.59
7335;BME280;3708;42.632;23.378;2023-04-20T10:42:42;93936.72;;;15.42;46.28
7335;BME280;3708;42.632;23.378;2023-04-20T10:45:10;93946.25;;;15.46;47.80
7335;BME280;3708;42.632;23.378;2023-04-20T10:47:37;93938.78;;;15.81;47.60
7335;BME280;3708;42.632;23.378;2023-04-20T10:50:06;93935.03;;;15.30;47.93
7335;BME280;3708;42.632;23.378;2023-04-20T10:52:35;93936.97;;;15.59;46.54
7335;BME280;3708;42.632;23.378;2023-04-20T10:55:03;93937.31;;;14.83;47.85
7335;BME280;3708;42.632;23.378;2023-04-20T10:57:31;93942.06;;;15.45;46.95
7335;BME280;3708;42.632;23.378;2023-04-20T10:59:58;93935.38;;;15.81;46.50
7335;BME280;3708;42.632;23.378;2023-04-20T11:02:25;93937.09;;;15.66;46.01
7335;BME280;3708;42.632;23.378;2023-04-20T11:04:52;93941.94;;;16.53;44.74
7335;BME280;3708;42.632;23.378;2023-04-20T11:07:25;93925.22;;;16.13;44.00
7335;BME280;3708;42.632;23.378;2023-04-20T11:09:53;93918.47;;;15.85;45.41
7335;BME280;3708;42.632;23.378;2023-04-20T11:12:22;93918.00;;;16.10;44.56
7335;BME280;3708;42.632;23.378;2023-04-20T11:14:51;93917.53;;;16.34;44.74
7335;BME280;3708;42.632;23.378;2023-04-20T11:17:18;93929.38;;;16.47;43.86
7335;BME280;3708;42.632;23.378;2023-04-20T11:19:45;93915.97;;;16.29;44.09
7335;BME280;3708;42.632;23.378;2023-04-20T11:22:20;93911.94;;;16.75;43.37
7335;BME280;3708;42.632;23.378;2023-04-20T11:24:47;93911.63;;;17.38;41.73
7335;BME280;3708;42.632;23.378;2023-04-20T11:27:19;93908.59;;;17.33;40.83
7335;BME280;3708;42.632;23.378;2023-04-20T11:29:55;93904.41;;;17.90;40.92
7335;BME280;3708;42.632;23.378;2023-04-20T11:32:25;93910.53;;;17.43;41.51
7335;BME280;3708;42.632;23.378;2023-04-20T11:34:59;93903.50;;;17.10;41.97
7335;BME280;3708;42.632;23.378;2023-04-20T11:37:27;93918.19;;;16.24;43.46
7335;BME280;3708;42.632;23.378;2023-04-20T11:40:07;93912.22;;;16.30;43.23
7335;BME280;3708;42.632;23.378;2023-04-20T11:42:36;93903.72;;;16.14;43.33
7335;BME280;3708;42.632;23.378;2023-04-20T11:45:03;93915.34;;;16.06;44.05
7335;BME280;3708;42.632;23.378;2023-04-20T11:47:31;93917.66;;;15.81;45.07
7335;BME280;3708;42.632;23.378;2023-04-20T11:49:57;93910.00;;;16.36;43.74
7335;BME280;3708;42.632;23.378;2023-04-20T11:52:24;93910.06;;;16.10;43.55
7335;BME280;3708;42.632;23.378;2023-04-20T11:54:51;93903.69;;;16.11;42.97
7335;BME280;3708;42.632;23.378;2023-04-20T11:57:18;93912.16;;;16.27;43.58
7335;BME280;3708;42.632;23.378;2023-04-20T11:59:47;93895.19;;;16.64;42.56
7335;BME280;3708;42.632;23.378;2023-04-20T12:02:14;93894.22;;;16.83;42.34
7335;BME280;3708;42.632;23.378;2023-04-20T12:04:41;93903.69;;;16.11;43.32
7335;BME280;3708;42.632;23.378;2023-04-20T12:07:08;93892.31;;;16.43;42.62
7335;BME280;3708;42.632;23.378;2023-04-20T12:09:35;93900.69;;;15.53;44.59
7335;BME280;3708;42.632;23.378;2023-04-20T12:12:05;93905.06;;;16.01;43.54
7335;BME280;3708;42.632;23.378;2023-04-20T12:14:33;93897.66;;;16.47;43.00
7335;BME280;3708;42.632;23.378;2023-04-20T12:17:03;93894.03;;;16.25;43.32
7335;BME280;3708;42.632;23.378;2023-04-20T12:19:31;93890.88;;;16.49;42.36
7335;BME280;3708;42.632;23.378;2023-04-20T12:21:58;93888.00;;;16.65;42.13
7335;BME280;3708;42.632;23.378;2023-04-20T12:24:25;93882.88;;;17.37;41.10
7335;BME280;3708;42.632;23.378;2023-04-20T12:26:51;93880.75;;;17.53;40.47
7335;BME280;3708;42.632;23.378;2023-04-20T12:29:18;93883.50;;;16.65;41.80
7335;BME280;3708;42.632;23.378;2023-04-20T12:31:45;93888.38;;;16.63;42.47
7335;BME280;3708;42.632;23.378;2023-04-20T12:34:13;93891.00;;;16.23;43.88
7335;BME280;3708;42.632;23.378;2023-04-20T12:36:42;93886.72;;;15.78;45.54
7335;BME280;3708;42.632;23.378;2023-04-20T12:39:09;93894.03;;;15.62;46.15
7335;BME280;3708;42.632;23.378;2023-04-20T12:41:36;93885.41;;;15.13;46.73
7335;BME280;3708;42.632;23.378;2023-04-20T12:44:05;93894.66;;;15.52;45.96
7335;BME280;3708;42.632;23.378;2023-04-20T12:46:32;93889.66;;;15.21;46.73
7335;BME280;3708;42.632;23.378;2023-04-20T12:48:59;93885.31;;;15.06;47.40
7335;BME280;3708;42.632;23.378;2023-04-20T12:51:27;93889.69;;;15.47;47.08
7335;BME280;3708;42.632;23.378;2023-04-20T12:53:54;93887.66;;;15.37;46.70
7335;BME280;3708;42.632;23.378;2023-04-20T12:56:21;93893.88;;;15.78;45.28
7335;BME280;3708;42.632;23.378;2023-04-20T12:58:47;93888.06;;;15.65;46.04
7335;BME280;3708;42.632;23.378;2023-04-20T13:01:14;93895.97;;;16.32;44.53
7335;BME280;3708;42.632;23.378;2023-04-20T13:03:42;93890.94;;;16.20;44.08
7335;BME280;3708;42.632;23.378;2023-04-20T13:06:09;93887.28;;;15.98;44.94
7335;BME280;3708;42.632;23.378;2023-04-20T13:08:38;93883.13;;;15.64;45.08
7335;BME280;3708;42.632;23.378;2023-04-20T13:11:05;93876.72;;;16.68;43.82